Time,TemperatureF,DewpointF,PressureIn,WindDirection,WindDirectionDegrees,WindSpeedMPH,WindSpeedGustMPH,Humidity,HourlyPrecipIn,Conditions,Clouds,dailyrainin,SoftwareType,DateUTC
2013-11-14 00:03:00,38.1,27.0,30.21,WSW,248,11.0,15.0,64,0.00,,,0.00,weatherlink.com 1.10,2013-11-14 05:03:00,
2013-11-14 00:18:00,38.8,28.0,30.22,West,277,7.0,22.0,66,0.00,,,0.00,weatherlink.com 1.10,2013-11-14 05:18:00,
2013-11-14 00:33:00,38.7,29.0,30.21,WSW,246,7.0,14.0,67,0.00,,,0.00,weatherlink.com 1.10,2013-11-14 05:33:00,
2013-11-14 00:48:00,39.0,30.0,30.20,WSW,239,7.0,15.0,69,0.00,,,0.00,weatherlink.com 1.10,2013-11-14 05:48:00,
2013-11-14 01:03:00,39.5,31.0,30.20,SW,233,9.0,14.0,71,0.00,,,0.00,weatherlink.com 1.10,2013-11-14 06:03:00,
2013-11-14 01:19:00,39.6,29.0,30.19,SW,214,1.0,14.0,67,0.00,,,0.00,weatherlink.com 1.10,2013-11-14 06:19:00,
2013-11-14 01:34:00,40.0,31.0,30.18,SSW,201,4.0,10.0,69,0.00,,,0.00,weatherlink.com 1.10,2013-11-14 06:34:00,
2013-11-14 01:49:00,39.8,30.0,30.18,WSW,243,7.0,14.0,67,0.00,,,0.00,weatherlink.com 1.10,2013-11-14 06:49:00,
2013-11-14 02:04:00,39.7,29.0,30.17,SSE,153,4.0,12.0,67,0.00,,,0.00,weatherlink.com 1.10,2013-11-14 07:04:00,
2013-11-14 02:19:00,38.6,30.0,30.17,West,259,4.0,10.0,72,0.00,,,0.00,weatherlink.com 1.10,2013-11-14 07:19:00,
2013-11-14 02:34:00,-999.0,-99.9,30.17,North,-999,-999.0,-999.0,-999,0.00,,,0.00,weatherlink.com 1.10,2013-11-14 07:34:00,
2013-11-14 02:49:00,-999.0,-99.9,30.16,North,-999,-999.0,-999.0,-999,0.00,,,0.00,weatherlink.com 1.10,2013-11-14 07:49:00,
2013-11-14 03:04:00,-999.0,-99.9,30.16,North,-999,-999.0,-999.0,-999,0.00,,,0.00,weatherlink.com 1.10,2013-11-14 08:04:00,
2013-11-14 03:19:00,-999.0,-99.9,30.16,North,-999,-999.0,-999.0,-999,0.00,,,0.00,weatherlink.com 1.10,2013-11-14 08:19:00,
2013-11-14 03:34:00,-999.0,-99.9,30.15,North,-999,-999.0,-999.0,-999,0.00,,,0.00,weatherlink.com 1.10,2013-11-14 08:34:00,
2013-11-14 03:49:00,-999.0,-99.9,30.16,North,-999,-999.0,-999.0,-999,0.00,,,0.00,weatherlink.com 1.10,2013-11-14 08:49:00,
2013-11-14 04:04:00,-999.0,-99.9,30.15,North,-999,-999.0,-999.0,-999,0.00,,,0.00,weatherlink.com 1.10,2013-11-14 09:04:00,
2013-11-14 04:19:00,-999.0,-99.9,30.14,North,-999,-999.0,-999.0,-999,0.00,,,0.00,weatherlink.com 1.10,2013-11-14 09:19:00,
2013-11-14 04:34:00,-999.0,-99.9,30.13,North,-999,-999.0,-999.0,-999,0.00,,,0.00,weatherlink.com 1.10,2013-11-14 09:34:00,
2013-11-14 04:49:00,-999.0,-99.9,30.14,North,-999,-999.0,-999.0,-999,0.00,,,0.00,weatherlink.com 1.10,2013-11-14 09:49:00,
2013-11-14 05:04:00,-999.0,-99.9,30.13,North,-999,-999.0,-999.0,-999,0.00,,,0.00,weatherlink.com 1.10,2013-11-14 10:04:00,
2013-11-14 05:20:00,-999.0,-99.9,30.14,North,-999,-999.0,-999.0,-999,0.00,,,0.00,weatherlink.com 1.10,2013-11-14 10:20:00,
2013-11-14 05:35:00,-999.0,-99.9,30.13,North,-999,-999.0,-999.0,-999,0.00,,,0.00,weatherlink.com 1.10,2013-11-14 10:35:00,
2013-11-14 05:50:00,-999.0,-99.9,30.14,North,-999,-999.0,-999.0,-999,0.00,,,0.00,weatherlink.com 1.10,2013-11-14 10:50:00,
2013-11-14 06:05:00,-999.0,-99.9,30.14,North,-999,-999.0,-999.0,-999,0.00,,,0.00,weatherlink.com 1.10,2013-11-14 11:05:00,
2013-11-14 06:20:00,-999.0,-99.9,30.14,North,-999,-999.0,-999.0,-999,0.00,,,0.00,weatherlink.com 1.10,2013-11-14 11:20:00,
2013-11-14 06:35:00,-999.0,-99.9,30.14,North,-999,-999.0,-999.0,-999,0.00,,,0.00,weatherlink.com 1.10,2013-11-14 11:35:00,
2013-11-14 06:50:00,-999.0,-99.9,30.14,North,-999,-999.0,-999.0,-999,0.00,,,0.00,weatherlink.com 1.10,2013-11-14 11:50:00,
2013-11-14 07:05:00,-999.0,-99.9,30.15,North,-999,-999.0,-999.0,-999,0.00,,,0.00,weatherlink.com 1.10,2013-11-14 12:05:00,
2013-11-14 07:20:00,-999.0,-99.9,30.15,North,-999,-999.0,-999.0,-999,0.00,,,0.00,weatherlink.com 1.10,2013-11-14 12:20:00,
2013-11-14 07:35:00,42.1,32.0,30.15,WSW,245,10.0,20.0,68,0.00,,,0.00,weatherlink.com 1.10,2013-11-14 12:35:00,
2013-11-14 07:50:00,42.1,31.0,30.15,West,267,11.0,18.0,65,0.00,,,0.00,weatherlink.com 1.10,2013-11-14 12:50:00,
2013-11-14 08:05:00,41.7,28.0,30.16,West,276,7.0,20.0,59,0.00,,,0.00,weatherlink.com 1.10,2013-11-14 13:05:00,
2013-11-14 08:20:00,41.3,26.0,30.16,SW,221,10.0,23.0,56,0.00,,,0.00,weatherlink.com 1.10,2013-11-14 13:20:00,
2013-11-14 08:35:00,41.1,28.0,30.16,West,275,14.0,16.0,59,0.00,,,0.00,weatherlink.com 1.10,2013-11-14 13:35:00,
2013-11-14 08:50:00,41.0,27.0,30.16,WSW,252,4.0,19.0,58,0.00,,,0.00,weatherlink.com 1.10,2013-11-14 13:50:00,
2013-11-14 09:05:00,41.4,27.0,30.16,WNW,301,10.0,16.0,58,0.00,,,0.00,weatherlink.com 1.10,2013-11-14 14:05:00,
2013-11-14 09:21:00,41.7,27.0,30.16,WSW,257,8.0,19.0,56,0.00,,,0.00,weatherlink.com 1.10,2013-11-14 14:21:00,
2013-11-14 09:35:00,42.1,28.0,30.16,WSW,250,10.0,17.0,57,0.00,,,0.00,weatherlink.com 1.10,2013-11-14 14:35:00,
2013-11-14 09:50:00,43.0,27.0,30.16,SSW,212,4.0,15.0,54,0.00,,,0.00,weatherlink.com 1.10,2013-11-14 14:50:00,
2013-11-14 10:05:00,43.3,27.0,30.16,West,274,7.0,16.0,54,0.00,,,0.00,weatherlink.com 1.10,2013-11-14 15:05:00,
2013-11-14 10:20:00,43.5,29.0,30.16,West,260,4.0,18.0,57,0.00,,,0.00,weatherlink.com 1.10,2013-11-14 15:20:00,
2013-11-14 10:35:00,43.9,30.0,30.15,WSW,246,8.0,15.0,59,0.00,,,0.00,weatherlink.com 1.10,2013-11-14 15:35:00,
2013-11-14 10:50:00,43.6,30.0,30.14,SSW,201,5.0,17.0,59,0.00,,,0.00,weatherlink.com 1.10,2013-11-14 15:50:00,
2013-11-14 11:05:00,43.9,31.0,30.14,WSW,245,9.0,16.0,62,0.00,,,0.00,weatherlink.com 1.10,2013-11-14 16:05:00,
2013-11-14 11:20:00,44.1,31.0,30.13,WSW,252,6.0,19.0,61,0.00,,,0.00,weatherlink.com 1.10,2013-11-14 16:20:00,
2013-11-14 11:35:00,44.3,31.0,30.13,WSW,247,6.0,18.0,60,0.00,,,0.00,weatherlink.com 1.10,2013-11-14 16:35:00,
2013-11-14 11:50:00,44.9,31.0,30.12,West,280,9.0,17.0,58,0.00,,,0.00,weatherlink.com 1.10,2013-11-14 16:50:00,
2013-11-14 12:05:00,46.0,31.0,30.12,SW,229,8.0,17.0,56,0.00,,,0.00,weatherlink.com 1.10,2013-11-14 17:05:00,
2013-11-14 12:20:00,46.3,32.0,30.12,SW,232,7.0,18.0,58,0.00,,,0.00,weatherlink.com 1.10,2013-11-14 17:20:00,
2013-11-14 12:36:00,46.5,31.0,30.11,SW,228,11.0,16.0,55,0.00,,,0.00,weatherlink.com 1.10,2013-11-14 17:36:00,
2013-11-14 12:51:00,46.6,31.0,30.11,South,188,9.0,23.0,54,0.00,,,0.00,weatherlink.com 1.10,2013-11-14 17:51:00,
2013-11-14 13:06:00,46.9,30.0,30.11,West,276,9.0,16.0,53,0.00,,,0.00,weatherlink.com 1.10,2013-11-14 18:06:00,
2013-11-14 13:21:00,47.4,31.0,30.10,WSW,243,6.0,17.0,53,0.00,,,0.00,weatherlink.com 1.10,2013-11-14 18:21:00,
2013-11-14 13:36:00,47.3,31.0,30.10,West,269,6.0,17.0,54,0.00,,,0.00,weatherlink.com 1.10,2013-11-14 18:36:00,
2013-11-14 13:51:00,48.0,31.0,30.10,WNW,291,4.0,15.0,53,0.00,,,0.00,weatherlink.com 1.10,2013-11-14 18:51:00,
2013-11-14 14:06:00,47.9,31.0,30.10,WSW,252,5.0,18.0,53,0.00,,,0.00,weatherlink.com 1.10,2013-11-14 19:06:00,
2013-11-14 14:21:00,48.4,32.0,30.10,WSW,250,7.0,14.0,54,0.00,,,0.00,weatherlink.com 1.10,2013-11-14 19:21:00,
2013-11-14 14:36:00,48.4,31.0,30.10,SW,225,4.0,15.0,51,0.00,,,0.00,weatherlink.com 1.10,2013-11-14 19:36:00,
2013-11-14 14:51:00,48.5,31.0,30.11,SSW,210,3.0,15.0,51,0.00,,,0.00,weatherlink.com 1.10,2013-11-14 19:51:00,
2013-11-14 15:06:00,48.6,32.0,30.11,SSW,210,3.0,10.0,53,0.00,,,0.00,weatherlink.com 1.10,2013-11-14 20:06:00,
2013-11-14 15:21:00,48.7,31.0,30.11,SW,215,4.0,17.0,50,0.00,,,0.00,weatherlink.com 1.10,2013-11-14 20:21:00,
2013-11-14 15:36:00,48.5,31.0,30.11,WNW,285,5.0,15.0,51,0.00,,,0.00,weatherlink.com 1.10,2013-11-14 20:36:00,
2013-11-14 15:51:00,48.2,31.0,30.11,WSW,243,9.0,14.0,51,0.00,,,0.00,weatherlink.com 1.10,2013-11-14 20:51:00,
2013-11-14 16:06:00,48.4,29.0,30.11,SW,225,4.0,12.0,48,0.00,,,0.00,weatherlink.com 1.10,2013-11-14 21:06:00,
2013-11-14 16:21:00,48.5,28.0,30.11,WSW,252,6.0,14.0,46,0.00,,,0.00,weatherlink.com 1.10,2013-11-14 21:21:00,
2013-11-14 16:36:00,48.7,29.0,30.11,SSW,211,4.0,14.0,46,0.00,,,0.00,weatherlink.com 1.10,2013-11-14 21:36:00,
2013-11-14 16:51:00,48.7,29.0,30.12,SSW,198,2.0,6.0,47,0.00,,,0.00,weatherlink.com 1.10,2013-11-14 21:51:00,
2013-11-14 17:06:00,48.3,34.0,30.12,South,191,6.0,11.0,59,0.00,,,0.00,weatherlink.com 1.10,2013-11-14 22:06:00,
2013-11-14 17:21:00,48.2,36.0,30.12,SSW,210,6.0,11.0,62,0.00,,,0.00,weatherlink.com 1.10,2013-11-14 22:21:00,
2013-11-14 17:36:00,48.4,36.0,30.13,SW,215,8.0,13.0,62,0.00,,,0.00,weatherlink.com 1.10,2013-11-14 22:36:00,
2013-11-14 17:51:00,48.6,36.0,30.13,SSW,197,9.0,11.0,63,0.00,,,0.00,weatherlink.com 1.10,2013-11-14 22:51:00,
2013-11-14 18:06:00,48.4,35.0,30.14,WSW,239,7.0,8.0,61,0.00,,,0.00,weatherlink.com 1.10,2013-11-14 23:06:00,
2013-11-14 18:21:00,48.9,35.0,30.14,SSW,212,4.0,12.0,60,0.00,,,0.00,weatherlink.com 1.10,2013-11-14 23:21:00,
2013-11-14 18:36:00,48.9,33.0,30.14,SW,214,6.0,10.0,55,0.00,,,0.00,weatherlink.com 1.10,2013-11-14 23:36:00,
2013-11-14 18:51:00,48.8,31.0,30.14,SSW,207,4.0,12.0,50,0.00,,,0.00,weatherlink.com 1.10,2013-11-14 23:51:00,
2013-11-14 19:06:00,48.9,31.0,30.14,SE,138,6.0,12.0,51,0.00,,,0.00,weatherlink.com 1.10,2013-11-15 00:06:00,
2013-11-14 19:21:00,49.1,32.0,30.15,SW,228,4.0,12.0,52,0.00,,,0.00,weatherlink.com 1.10,2013-11-15 00:21:00,
2013-11-14 19:36:00,49.3,33.0,30.15,SSW,211,5.0,13.0,53,0.00,,,0.00,weatherlink.com 1.10,2013-11-15 00:36:00,
2013-11-14 19:51:00,48.9,32.0,30.15,SW,233,3.0,10.0,53,0.00,,,0.00,weatherlink.com 1.10,2013-11-15 00:51:00,
2013-11-14 20:06:00,48.6,32.0,30.15,SW,216,3.0,7.0,54,0.00,,,0.00,weatherlink.com 1.10,2013-11-15 01:06:00,
2013-11-14 20:21:00,48.7,33.0,30.15,SSW,204,2.0,13.0,54,0.00,,,0.00,weatherlink.com 1.10,2013-11-15 01:21:00,
2013-11-14 20:36:00,49.5,30.0,30.15,SW,226,3.0,15.0,48,0.00,,,0.00,weatherlink.com 1.10,2013-11-15 01:36:00,
2013-11-14 20:51:00,50.1,31.0,30.16,SW,236,5.0,18.0,48,0.00,,,0.00,weatherlink.com 1.10,2013-11-15 01:51:00,
2013-11-14 21:06:00,50.6,30.0,30.16,SW,215,8.0,14.0,45,0.00,,,0.00,weatherlink.com 1.10,2013-11-15 02:06:00,
2013-11-14 21:21:00,50.8,30.0,30.16,WSW,248,6.0,12.0,45,0.00,,,0.00,weatherlink.com 1.10,2013-11-15 02:21:00,
2013-11-14 21:36:00,50.7,30.0,30.16,SW,221,4.0,13.0,45,0.00,,,0.00,weatherlink.com 1.10,2013-11-15 02:36:00,
2013-11-14 21:51:00,50.0,32.0,30.16,SW,215,3.0,10.0,50,0.00,,,0.00,weatherlink.com 1.10,2013-11-15 02:51:00,
2013-11-14 22:06:00,49.3,33.0,30.16,WSW,252,5.0,9.0,53,0.00,,,0.00,weatherlink.com 1.10,2013-11-15 03:06:00,
2013-11-14 22:21:00,49.1,33.0,30.16,WSW,240,5.0,7.0,54,0.00,,,0.00,weatherlink.com 1.10,2013-11-15 03:21:00,
2013-11-14 22:36:00,48.8,34.0,30.16,SW,230,6.0,9.0,56,0.00,,,0.00,weatherlink.com 1.10,2013-11-15 03:36:00,
2013-11-14 22:51:00,48.6,34.0,30.16,SSW,198,3.0,9.0,57,0.00,,,0.00,weatherlink.com 1.10,2013-11-15 03:51:00,
2013-11-14 23:06:00,48.4,34.0,30.16,SSW,205,5.0,6.0,58,0.00,,,0.00,weatherlink.com 1.10,2013-11-15 04:06:00,
2013-11-14 23:21:00,48.5,35.0,30.16,South,184,5.0,7.0,59,0.00,,,0.00,weatherlink.com 1.10,2013-11-15 04:21:00,
2013-11-14 23:36:00,49.4,31.0,30.16,SW,218,2.0,16.0,50,0.00,,,0.00,weatherlink.com 1.10,2013-11-15 04:36:00,
2013-11-14 23:51:00,49.3,35.0,30.16,SSW,211,2.0,7.0,59,0.00,,,0.00,weatherlink.com 1.10,2013-11-15 04:51:00,